Time;durP1;ratioP1;P1;durP2;ratioP2;P2;SDS_P1;SDS_P2;PMS_P1;PMS_P2;Temp;Humidity;BMP_temperature;BMP_pressure;BME280_temperature;BME280_humidity;BME280_pressure;Samples;Min_cycle;Max_cycle;Signal;HPM_P1;HPM_P2
2023/03/28 11:42:37;;;;;;;;;3.75;3.00;;;;;17.49;44.27;102068.19;5117658;27;45877;-78
2023/03/28 11:45:14;;;;;;;;;9.00;5.75;;;;;18.17;45.36;102060.34;5099193;27;45752;-77
2023/03/28 11:47:46;;;;;;;;;9.25;7.75;;;;;19.05;45.44;102060.81;5105783;27;45487;-78
2023/03/28 11:50:21;;;;;;;;;7.25;7.25;;;;;20.00;44.92;102056.00;5110442;27;45649;-77
2023/03/28 11:52:58;;;;;;;;;7.50;6.50;;;;;20.86;44.55;102041.50;5101612;27;48649;-79
2023/03/28 11:55:33;;;;;;;;;6.25;6.00;;;;;21.63;43.94;102047.25;5110407;27;45490;-77
2023/03/28 11:58:09;;;;;;;;;6.25;5.00;;;;;22.29;43.84;102057.22;5109371;27;45560;-77
2023/03/28 12:00:42;;;;;;;;;5.00;5.00;;;;;22.82;42.77;102054.66;5109791;27;45358;-78
2023/03/28 12:03:20;;;;;;;;;6.75;6.25;;;;;23.30;42.61;102039.69;5092925;27;46825;-78
2023/03/28 12:06:00;;;;;;;;;5.25;5.25;;;;;23.70;41.98;102046.13;5094586;27;45433;-79
2023/03/28 12:08:44;;;;;;;;;8.00;7.00;;;;;24.05;41.75;102042.09;5108775;27;45454;-78
2023/03/28 12:11:15;;;;;;;;;5.00;5.00;;;;;24.33;41.26;102031.41;5107617;27;45576;-77
2023/03/28 12:13:47;;;;;;;;;5.00;5.00;;;;;24.59;41.19;102011.84;5105909;27;46134;-76
2023/03/28 12:16:36;;;;;;;;;5.67;5.67;;;;;24.89;40.59;102000.09;5108555;27;45572;-78
2023/03/28 12:19:08;;;;;;;;;5.00;5.00;;;;;25.10;40.16;101989.00;5096700;27;46796;-81
2023/03/28 12:21:40;;;;;;;;;6.33;5.00;;;;;25.27;39.77;102004.50;5109755;27;45439;-79
2023/03/28 12:24:23;;;;;;;;;5.33;5.00;;;;;25.44;39.36;102015.59;5105996;27;46203;-79
2023/03/28 12:27:13;;;;;;;;;4.00;4.00;;;;;25.58;39.28;102014.25;5107025;27;45640;-80
2023/03/28 12:29:46;;;;;;;;;4.33;2.67;;;;;25.69;39.13;102005.03;5107183;27;45475;-75
2023/03/28 12:32:31;;;;;;;;;5.00;5.00;;;;;25.77;38.27;101993.38;5109770;27;45377;-75
2023/03/28 12:35:04;;;;;;;;;5.00;4.00;;;;;25.87;38.90;101977.84;5100795;27;46136;-73
2023/03/28 12:38:00;;;;;;;;;4.67;3.33;;;;;25.96;38.40;101972.50;5098401;27;45501;-73
2023/03/28 12:40:45;;;;;;;;;5.33;5.00;;;;;26.09;38.00;101983.84;5101323;27;45469;-74
2023/03/28 12:43:14;;;;;;;;;3.67;3.67;;;;;26.17;37.88;101980.34;5109432;27;45418;-74
2023/03/28 12:45:47;;;;;;;;;5.67;5.00;;;;;26.24;38.04;101967.81;5104380;27;45440;-73
2023/03/28 12:48:29;;;;;;;;;3.67;3.67;;;;;26.34;37.52;101964.19;5096097;27;45432;-80
2023/03/28 12:51:00;;;;;;;;;3.00;3.00;;;;;26.38;37.91;101951.97;5108316;27;45368;-75
2023/03/28 12:53:30;;;;;;;;;4.00;4.00;;;;;26.42;37.89;101945.19;5097444;27;45845;-80
2023/03/28 12:55:55;;;;;;;;;5.00;3.33;;;;;26.49;37.64;101942.69;5089078;27;46122;-75
2023/03/28 12:58:34;;;;;;;;;7.67;4.00;;;;;26.53;37.26;101955.81;5086548;27;45482;-76
2023/03/28 13:01:05;;;;;;;;;4.00;4.00;;;;;26.60;37.18;101961.47;5094502;27;45429;-75
2023/03/28 13:04:03;;;;;;;;;3.00;3.00;;;;;26.64;36.82;101960.13;5095164;27;45505;-76
2023/03/28 13:06:41;;;;;;;;;3.33;2.33;;;;;26.70;36.33;101955.94;5093021;27;46586;-75
2023/03/28 13:09:29;;;;;;;;;3.67;3.67;;;;;26.75;36.89;101958.16;5104216;27;45519;-76
2023/03/28 13:12:05;;;;;;;;;2.00;2.00;;;;;26.78;36.18;101934.19;5092917;27;45611;-76
2023/03/28 13:14:41;;;;;;;;;2.33;2.33;;;;;26.81;36.79;101949.38;5089036;27;45571;-76
2023/03/28 13:17:22;;;;;;;;;3.00;3.00;;;;;26.82;36.60;101941.00;5092130;27;46333;-76
2023/03/28 13:19:52;;;;;;;;;3.67;3.67;;;;;26.82;36.37;101934.72;5094715;27;45630;-76
2023/03/28 13:22:31;;;;;;;;;4.00;4.00;;;;;26.84;36.17;101925.38;5095824;27;45823;-76
2023/03/28 13:25:19;;;;;;;;;4.00;3.00;;;;;26.86;36.18;101938.84;5091694;27;45397;-76
2023/03/28 13:27:47;;;;;;;;;3.00;2.67;;;;;26.87;36.37;101937.81;5091922;27;45274;-76
2023/03/28 13:30:18;;;;;;;;;5.00;4.33;;;;;26.87;35.73;101935.09;5080339;27;45376;-75
2023/03/28 13:32:52;;;;;;;;;3.00;3.00;;;;;26.93;36.11;101939.91;5092546;27;45462;-76
2023/03/28 13:35:44;;;;;;;;;4.00;3.33;;;;;26.95;35.50;101939.75;5095021;27;45528;-77
2023/03/28 13:38:27;;;;;;;;;2.00;2.00;;;;;26.98;35.50;101928.53;5093127;27;45550;-78
2023/03/28 13:41:00;;;;;;;;;3.00;3.00;;;;;27.01;35.21;101927.34;5093410;27;45789;-76
2023/03/28 13:43:34;;;;;;;;;2.00;2.00;;;;;27.02;35.30;101918.16;5089773;27;45524;-79
2023/03/28 13:46:11;;;;;;;;;2.00;2.00;;;;;27.04;35.53;101919.69;5092043;27;45581;-77
2023/03/28 13:48:44;;;;;;;;;4.00;3.00;;;;;27.07;35.21;101905.75;5092653;27;46632;-77
2023/03/28 13:51:16;;;;;;;;;2.67;2.67;;;;;27.06;35.46;101905.91;5090235;27;45284;-83
2023/03/28 13:53:41;;;;;;;;;3.33;3.33;;;;;27.05;35.47;101898.78;5089467;27;45534;-82
2023/03/28 13:56:24;;;;;;;;;3.33;3.00;;;;;27.01;34.69;101908.28;5098873;27;45436;-77
2023/03/28 13:58:52;;;;;;;;;4.00;4.00;;;;;26.95;35.23;101898.88;5096141;27;46518;-73
2023/03/28 14:01:23;;;;;;;;;7.00;4.00;;;;;26.94;34.90;101892.56;5086393;27;45509;-74
2023/03/28 14:03:50;;;;;;;;;3.00;3.00;;;;;26.92;34.95;101888.28;5091874;27;45632;-74
2023/03/28 14:06:27;;;;;;;;;7.00;4.00;;;;;26.95;34.40;101890.72;5093518;27;45482;-74
2023/03/28 14:08:57;;;;;;;;;2.33;2.33;;;;;26.96;34.72;101882.38;5086925;27;46451;-74
2023/03/28 14:11:31;;;;;;;;;4.00;3.00;;;;;27.00;34.57;101877.44;5094410;27;45486;-76
2023/03/28 14:14:22;;;;;;;;;2.33;2.33;;;;;27.02;34.51;101874.56;5093543;27;45319;-75
2023/03/28 14:16:48;;;;;;;;;7.00;2.67;;;;;27.02;34.63;101869.94;5092806;27;45610;-76
2023/03/28 14:19:19;;;;;;;;;4.67;3.67;;;;;27.05;33.92;101864.19;5093286;27;45983;-80
2023/03/28 14:21:45;;;;;;;;;3.33;3.33;;;;;27.04;33.90;101856.16;5097102;27;45377;-80
2023/03/28 14:24:20;;;;;;;;;2.00;2.00;;;;;27.05;34.64;101847.84;5092097;27;45650;-79
2023/03/28 14:26:46;;;;;;;;;1.33;1.33;;;;;27.04;34.01;101831.66;5092233;27;45671;-81
2023/03/28 14:29:14;;;;;;;;;2.00;2.00;;;;;27.06;34.30;101826.91;5093978;27;45449;-82
2023/03/28 14:31:44;;;;;;;;;1.00;1.00;;;;;27.06;34.42;101813.28;5093937;27;45454;-80
2023/03/28 14:34:20;;;;;;;;;4.00;4.00;;;;;27.06;34.51;101799.66;5094628;27;45474;-81
2023/03/28 14:37:15;;;;;;;;;3.33;2.00;;;;;27.07;34.43;101782.28;5093750;27;45425;-82
2023/03/28 14:39:41;;;;;;;;;2.00;2.00;;;;;27.07;34.33;101774.97;5089418;27;46672;-81
2023/03/28 14:42:14;;;;;;;;;5.00;3.33;;;;;27.07;34.50;101769.53;5092612;27;45433;-76
2023/03/28 14:44:42;;;;;;;;;2.33;2.33;;;;;27.16;34.26;101766.78;5092087;27;45481;-78
2023/03/28 14:47:24;;;;;;;;;1.00;1.00;;;;;27.14;33.77;101752.50;5094397;27;45469;-77
2023/03/28 14:49:50;;;;;;;;;1.00;1.00;;;;;27.20;34.17;101751.81;5079314;27;46014;-78
2023/03/28 14:52:26;;;;;;;;;4.33;3.00;;;;;27.21;34.14;101738.03;5090113;27;45714;-77
2023/03/28 14:54:52;;;;;;;;;1.00;1.00;;;;;27.26;33.77;101726.59;5088028;27;45554;-82
2023/03/28 14:57:18;;;;;;;;;3.00;3.00;;;;;27.27;34.19;101711.09;5091039;27;45427;-78
2023/03/28 14:59:46;;;;;;;;;1.00;1.00;;;;;27.32;33.79;101698.69;5093707;27;45433;-78
2023/03/28 15:02:18;;;;;;;;;2.00;2.00;;;;;27.34;34.00;101682.16;5089651;27;45660;-79
2023/03/28 15:04:45;;;;;;;;;1.67;1.00;;;;;27.40;34.11;101694.22;5092623;27;45352;-81
2023/03/28 15:07:22;;;;;;;;;2.00;2.00;;;;;27.44;33.48;101706.50;5085880;27;45753;-81
2023/03/28 15:10:11;;;;;;;;;2.00;2.00;;;;;27.48;34.08;101708.72;5084968;27;46141;-78
2023/03/28 15:12:48;;;;;;;;;2.33;2.33;;;;;27.51;33.17;101710.25;5085529;27;45677;-78
2023/03/28 15:15:22;;;;;;;;;3.00;3.00;;;;;27.53;34.00;101708.19;5090994;27;45526;-83
2023/03/28 15:17:50;;;;;;;;;2.67;2.67;;;;;27.53;33.37;101696.44;5093597;27;45394;-81
2023/03/28 15:20:22;;;;;;;;;1.00;1.00;;;;;27.61;33.54;101696.44;5093252;27;45802;-81
2023/03/28 15:22:53;;;;;;;;;2.33;2.33;;;;;27.66;33.67;101687.75;5092576;27;45865;-87
2023/03/28 15:25:20;;;;;;;;;2.00;1.00;;;;;27.69;33.50;101682.81;5079560;27;45597;-84
2023/03/28 15:27:55;;;;;;;;;3.67;1.00;;;;;27.71;33.60;101660.81;5086260;27;45773;-82
2023/03/28 15:30:22;;;;;;;;;3.00;2.00;;;;;27.78;33.35;101669.16;5076250;27;46704;-83
2023/03/28 15:32:48;;;;;;;;;2.00;1.00;;;;;27.80;33.65;101657.03;5086824;27;45389;-81
2023/03/28 15:35:27;;;;;;;;;4.67;1.67;;;;;27.81;33.36;101652.41;5092923;27;45556;-83
2023/03/28 15:38:00;;;;;;;;;3.00;1.00;;;;;27.73;33.22;101640.53;5089103;27;45465;-77
2023/03/28 15:40:29;;;;;;;;;2.00;1.00;;;;;27.77;33.48;101654.66;5089203;27;45580;-78
2023/03/28 15:42:55;;;;;;;;;3.00;2.00;;;;;27.73;33.41;101640.53;5087739;27;45494;-78
2023/03/28 15:45:40;;;;;;;;;1.33;1.33;;;;;27.75;32.89;101640.34;5093020;27;45370;-78
2023/03/28 15:48:12;;;;;;;;;3.33;2.00;;;;;27.77;33.44;101621.06;5080742;27;45562;-78
2023/03/28 15:50:42;;;;;;;;;2.00;2.00;;;;;27.81;33.29;101634.19;5091180;27;45515;-78
2023/03/28 15:53:13;;;;;;;;;1.33;1.00;;;;;27.82;32.79;101626.84;5085037;27;45485;-84
2023/03/28 15:55:41;;;;;;;;;2.00;2.00;;;;;27.82;32.67;101626.84;5085254;27;45740;-85
2023/03/28 15:58:12;;;;;;;;;5.33;2.67;;;;;27.81;33.12;101619.69;5090857;27;45471;-83
2023/03/28 16:00:48;;;;;;;;;4.33;2.67;;;;;27.78;33.00;101617.34;5091650;27;47165;-82
2023/03/28 16:03:33;;;;;;;;;2.00;2.00;;;;;27.74;33.01;101625.00;5092942;27;45764;-83
2023/03/28 16:06:13;;;;;;;;;1.33;1.33;;;;;27.70;32.86;101640.00;5093097;27;45690;-83
2023/03/28 16:08:41;;;;;;;;;2.00;2.00;;;;;27.65;32.79;101628.78;5087772;27;45402;-86
2023/03/28 16:11:13;;;;;;;;;3.00;3.00;;;;;27.61;32.09;101636.47;5091306;27;46028;-87
2023/03/28 16:13:39;;;;;;;;;6.33;3.33;;;;;27.57;32.20;101625.03;5091993;27;45453;-80
2023/03/28 16:16:06;;;;;;;;;2.00;2.00;;;;;27.55;31.95;101637.97;5092499;27;45375;-79
2023/03/28 16:18:31;;;;;;;;;2.33;2.33;;;;;27.50;32.04;101640.38;5084055;27;47455;-79
2023/03/28 16:20:56;;;;;;;;;5.33;2.00;;;;;27.51;32.39;101633.91;5082090;27;46385;-77
2023/03/28 16:23:21;;;;;;;;;1.67;1.67;;;;;27.51;31.92;101639.38;5085230;27;48491;-77
2023/03/28 16:25:47;;;;;;;;;1.00;1.00;;;;;27.49;32.08;101633.22;5090817;27;45459;-78
2023/03/28 16:28:16;;;;;;;;;2.00;2.00;;;;;27.53;32.66;101631.00;5087684;27;46306;-78
2023/03/28 16:30:42;;;;;;;;;4.67;2.00;;;;;27.52;32.58;101627.44;5093022;27;47524;-78
2023/03/28 16:33:08;;;;;;;;;0.67;0.67;;;;;27.55;31.93;101646.16;5092427;27;45480;-78
2023/03/28 16:35:33;;;;;;;;;3.67;2.00;;;;;27.56;31.92;101636.97;5086680;27;45375;-78
2023/03/28 16:38:00;;;;;;;;;1.00;1.00;;;;;27.53;31.68;101637.31;5093730;27;45449;-80
2023/03/28 16:40:26;;;;;;;;;0.00;0.00;;;;;27.58;32.28;101642.22;5085389;27;48288;-79
2023/03/28 16:42:51;;;;;;;;;2.00;0.33;;;;;27.58;32.27;101650.41;5092186;27;45560;-80
2023/03/28 16:45:19;;;;;;;;;1.00;1.00;;;;;27.58;31.72;101658.59;5096023;27;45264;-81
2023/03/28 16:47:44;;;;;;;;;0.00;0.00;;;;;27.60;31.70;101648.41;5093963;27;46400;-78
2023/03/28 16:50:10;;;;;;;;;1.00;1.00;;;;;27.56;31.78;101636.09;5086762;27;45428;-79
2023/03/28 16:52:37;;;;;;;;;1.67;1.67;;;;;27.58;32.21;101615.81;5085901;27;45985;-78
2023/03/28 16:55:08;;;;;;;;;2.00;1.00;;;;;27.61;32.01;101626.41;5077855;27;45664;-77
2023/03/28 16:57:34;;;;;;;;;1.67;1.67;;;;;27.58;32.09;101618.53;5082190;27;45533;-79
2023/03/28 17:00:00;;;;;;;;;2.00;1.00;;;;;27.55;31.59;101598.97;5095746;27;46441;-80
2023/03/28 17:02:25;;;;;;;;;2.33;2.33;;;;;27.60;31.77;101602.03;5094151;27;45835;-79
2023/03/28 17:04:50;;;;;;;;;1.00;1.00;;;;;27.58;31.33;101602.19;5094137;27;47220;-79
2023/03/28 17:07:16;;;;;;;;;1.00;1.00;;;;;27.56;32.01;101606.13;5085568;27;45462;-79
2023/03/28 17:09:42;;;;;;;;;1.33;1.33;;;;;27.55;31.40;101620.78;5095679;27;45621;-79
2023/03/28 17:12:08;;;;;;;;;1.00;1.00;;;;;27.55;31.87;101628.97;5088479;27;45501;-81
2023/03/28 17:14:35;;;;;;;;;0.00;0.00;;;;;27.53;31.25;101618.22;5094203;27;45422;-81
2023/03/28 17:17:01;;;;;;;;;2.00;2.00;;;;;27.51;31.60;101582.13;5092435;27;45423;-82
2023/03/28 17:19:27;;;;;;;;;2.00;1.33;;;;;27.52;31.64;101572.91;5094801;27;46195;-80
2023/03/28 17:21:54;;;;;;;;;1.00;1.00;;;;;27.46;31.31;101573.63;5095104;27;45402;-81
